createdAt,value
2019-02-11T00:03:27.110Z,70.50
2019-02-11T00:07:33.949Z,70.80
2019-02-11T00:11:40.837Z,71.92
2019-02-11T00:15:47.686Z,71.99
2019-02-11T00:19:54.582Z,73.09
2019-02-11T00:24:01.602Z,73.64
2019-02-11T00:28:08.388Z,74.87
2019-02-11T00:32:15.281Z,75.57
2019-02-11T00:36:22.368Z,76.10
2019-02-11T00:40:29.270Z,76.17
2019-02-11T00:44:36.645Z,76.08
2019-02-11T00:48:43.548Z,76.51
2019-02-11T00:52:50.398Z,76.01
2019-02-11T00:56:57.261Z,76.23
2019-02-11T01:01:04.163Z,76.11
2019-02-11T01:05:11.321Z,76.56
2019-02-11T01:09:18.150Z,76.49
2019-02-11T01:13:27.868Z,76.83
2019-02-11T01:17:33.521Z,76.93
2019-02-11T01:21:40.407Z,77.15
2019-02-11T01:25:47.217Z,77.30
2019-02-11T01:29:54.222Z,77.35
2019-02-11T01:34:01.128Z,77.62
2019-02-11T01:38:07.985Z,77.18
2019-02-11T01:42:14.848Z,77.37
2019-02-11T01:46:24.527Z,77.40
2019-02-11T01:50:31.643Z,76.79
2019-02-11T01:54:38.687Z,77.14
2019-02-11T01:58:45.496Z,77.26
2019-02-11T02:02:52.351Z,77.50
2019-02-11T02:06:59.249Z,77.71
2019-02-11T02:11:06.161Z,77.16
2019-02-11T02:15:13.957Z,76.92
2019-02-11T02:19:20.825Z,76.92
2019-02-11T02:23:27.737Z,76.77
2019-02-11T02:27:34.587Z,76.63
2019-02-11T02:31:41.391Z,76.38
2019-02-11T02:35:48.288Z,76.23
2019-02-11T02:39:55.222Z,76.15
2019-02-11T02:44:02.103Z,76.49
2019-02-11T02:48:08.977Z,76.23
2019-02-11T02:52:15.879Z,76.49
2019-02-11T02:56:22.754Z,76.62
2019-02-11T03:00:29.574Z,77.04
2019-02-11T03:04:36.399Z,76.83
2019-02-11T03:08:43.170Z,77.31
2019-02-11T03:12:50.014Z,76.82
2019-02-11T03:16:57.058Z,77.25
2019-02-11T03:21:03.905Z,77.01
2019-02-11T03:25:11.754Z,76.95
2019-02-11T03:29:18.610Z,76.41
2019-02-11T03:33:25.415Z,76.52
2019-02-11T03:37:33.066Z,76.16
2019-02-11T03:41:40.004Z,76.01
2019-02-11T03:45:46.821Z,75.96
2019-02-11T03:49:53.724Z,75.81
2019-02-11T03:54:00.570Z,75.86
2019-02-11T03:58:07.408Z,75.93
2019-02-11T04:02:14.467Z,75.41
2019-02-11T04:06:21.319Z,75.46
2019-02-11T04:10:28.287Z,75.69
2019-02-11T04:14:35.286Z,75.50
2019-02-11T04:18:42.076Z,75.30
2019-02-11T04:22:48.916Z,75.49
2019-02-11T04:26:55.834Z,75.43
2019-02-11T04:31:02.660Z,75.48
2019-02-11T04:35:09.616Z,75.68
2019-02-11T04:39:16.539Z,75.59
2019-02-11T04:43:23.358Z,75.47
2019-02-11T04:47:30.126Z,75.62
2019-02-11T04:51:36.985Z,75.67
2019-02-11T04:55:47.039Z,76.17
2019-02-11T04:59:54.921Z,76.11
2019-02-11T05:04:01.828Z,76.01
2019-02-11T05:08:08.636Z,76.30
2019-02-11T05:12:15.476Z,76.41
2019-02-11T05:16:22.349Z,76.33
2019-02-11T05:20:29.176Z,76.18
2019-02-11T05:24:35.996Z,76.22
2019-02-11T05:28:50.062Z,76.26
2019-02-11T05:32:56.901Z,76.29
2019-02-11T05:37:03.711Z,76.44
2019-02-11T05:41:10.476Z,76.53
2019-02-11T05:45:17.402Z,76.21
2019-02-11T05:49:24.223Z,76.00
2019-02-11T05:53:31.039Z,75.45
2019-02-11T05:57:37.924Z,75.39
2019-02-11T06:01:44.817Z,75.34
2019-02-11T06:05:51.979Z,75.18
2019-02-11T06:09:58.830Z,74.74
2019-02-11T06:14:05.802Z,74.26
2019-02-11T06:18:12.600Z,73.96
2019-02-11T06:22:20.429Z,73.80
2019-02-11T06:26:27.242Z,73.81
2019-02-11T06:30:34.131Z,73.21
2019-02-11T06:34:40.918Z,73.69
2019-02-11T06:38:47.794Z,74.44
2019-02-11T06:42:54.663Z,73.18
2019-02-11T06:47:01.509Z,72.71
2019-02-11T06:51:08.509Z,72.66
2019-02-11T06:55:16.463Z,72.67
2019-02-11T06:59:23.302Z,72.86
2019-02-11T07:03:30.201Z,72.54
2019-02-11T07:07:36.975Z,72.20
2019-02-11T07:11:43.783Z,71.86
2019-02-11T07:16:00.096Z,72.07
2019-02-11T07:20:08.311Z,71.55
2019-02-11T07:24:15.203Z,73.40
2019-02-11T07:28:23.448Z,71.24
2019-02-11T07:32:30.545Z,71.26
2019-02-11T07:36:37.510Z,71.00
2019-02-11T07:40:44.411Z,70.94
2019-02-11T07:44:54.793Z,70.79
2019-02-11T07:49:01.816Z,70.67
2019-02-11T07:53:08.749Z,70.48
2019-02-11T07:57:15.642Z,70.03
2019-02-11T08:01:22.590Z,69.86
2019-02-11T08:05:29.580Z,69.68
2019-02-11T08:09:36.546Z,69.93
2019-02-11T08:13:43.399Z,69.65
2019-02-11T08:17:50.356Z,69.53
2019-02-11T08:21:57.203Z,69.85
2019-02-11T08:26:04.107Z,69.68
2019-02-11T08:30:11.600Z,69.01
2019-02-11T08:34:18.626Z,69.33
2019-02-11T08:38:25.693Z,68.43
2019-02-11T08:42:32.805Z,68.29
2019-02-11T08:46:39.643Z,68.27
2019-02-11T08:50:46.533Z,68.21
2019-02-11T08:54:53.467Z,66.75
2019-02-11T08:59:00.447Z,66.62
2019-02-11T09:03:07.411Z,66.86
2019-02-11T09:07:14.347Z,65.52
2019-02-11T09:11:21.241Z,65.55
2019-02-11T09:15:28.161Z,65.38
2019-02-11T09:19:35.255Z,64.52
2019-02-11T09:23:42.118Z,64.59
2019-02-11T09:27:48.976Z,64.62
2019-02-11T09:31:55.865Z,63.77
2019-02-11T09:36:03.408Z,63.39
2019-02-11T09:40:12.648Z,63.46
2019-02-11T09:44:19.557Z,62.82
2019-02-11T09:48:26.382Z,61.74
2019-02-11T09:52:33.298Z,60.94
2019-02-11T09:56:40.714Z,59.67
2019-02-11T10:00:47.614Z,59.88
2019-02-11T10:04:54.659Z,59.09
2019-02-11T10:09:01.518Z,59.87
2019-02-11T10:13:10.095Z,59.30
2019-02-11T10:17:18.945Z,59.29
2019-02-11T10:21:25.839Z,58.08
2019-02-11T10:25:32.986Z,58.31
2019-02-11T10:29:40.181Z,59.15
2019-02-11T10:33:47.352Z,58.12
2019-02-11T10:37:54.575Z,58.77
2019-02-11T10:42:01.631Z,57.45
2019-02-11T10:46:08.848Z,57.92
2019-02-11T10:50:16.654Z,58.37
2019-02-11T10:54:24.099Z,58.50
2019-02-11T10:58:31.063Z,59.20
2019-02-11T11:02:37.949Z,59.69
2019-02-11T11:06:45.026Z,59.54
2019-02-11T11:10:52.057Z,59.79
2019-02-11T11:14:59.112Z,59.38
2019-02-11T11:19:06.530Z,59.65
2019-02-11T11:23:15.097Z,59.31
2019-02-11T11:27:23.545Z,59.19
2019-02-11T11:31:30.428Z,58.72
2019-02-11T11:35:37.507Z,58.17
2019-02-11T11:39:44.647Z,57.71
2019-02-11T11:43:51.652Z,57.08
2019-02-11T11:47:58.708Z,56.66
2019-02-11T11:52:06.768Z,56.53
2019-02-11T11:56:13.643Z,56.85
2019-02-11T12:00:24.303Z,56.90
2019-02-11T12:04:32.198Z,56.25
2019-02-11T12:08:39.186Z,56.21
2019-02-11T12:12:46.168Z,56.01
2019-02-11T12:16:57.695Z,56.17
2019-02-11T12:21:03.292Z,56.05
2019-02-11T12:25:12.451Z,55.99
2019-02-11T12:29:22.262Z,55.39
2019-02-11T12:33:29.159Z,55.21
2019-02-11T12:37:36.802Z,54.88
2019-02-11T12:41:43.844Z,54.79
2019-02-11T12:45:50.769Z,54.72
2019-02-11T12:49:58.620Z,53.74
2019-02-11T12:54:05.500Z,52.91
2019-02-11T12:58:12.354Z,50.92
2019-02-11T13:02:19.269Z,50.96
2019-02-11T13:06:26.285Z,49.53
2019-02-11T13:10:33.264Z,47.68
2019-02-11T13:14:40.327Z,50.11
2019-02-11T13:18:47.230Z,49.53
2019-02-11T13:22:54.080Z,50.40
2019-02-11T13:27:01.131Z,52.05
2019-02-11T13:31:08.043Z,51.82
2019-02-11T13:35:15.492Z,52.23
2019-02-11T13:39:22.513Z,52.28
2019-02-11T13:43:29.341Z,53.02
2019-02-11T13:47:51.901Z,53.60
2019-02-11T13:51:45.849Z,53.77
2019-02-11T13:55:52.966Z,54.73
2019-02-11T13:59:59.838Z,54.58
2019-02-11T14:04:06.889Z,54.67
2019-02-11T14:08:13.768Z,55.24
2019-02-11T14:12:22.229Z,54.81
2019-02-11T14:16:29.261Z,54.55
2019-02-11T14:20:36.233Z,54.70
2019-02-11T14:24:44.423Z,54.63
2019-02-11T14:28:51.245Z,54.48
2019-02-11T14:32:58.230Z,54.58
2019-02-11T14:37:05.262Z,55.36
2019-02-11T14:41:15.054Z,54.61
2019-02-11T14:45:23.019Z,54.69
2019-02-11T14:49:30.288Z,54.26
2019-02-11T14:53:37.453Z,54.12
2019-02-11T14:57:44.461Z,55.05
2019-02-11T15:01:51.370Z,55.00
2019-02-11T15:05:58.584Z,56.35
2019-02-11T15:10:05.880Z,56.54
2019-02-11T15:14:12.873Z,56.97
2019-02-11T15:18:19.874Z,57.69
2019-02-11T15:22:28.090Z,58.49
2019-02-11T15:26:38.335Z,59.22
2019-02-11T15:30:45.213Z,60.23
2019-02-11T15:34:52.178Z,60.28
2019-02-11T15:38:59.661Z,61.01
2019-02-11T15:43:06.550Z,61.23
2019-02-11T15:47:13.495Z,62.02
2019-02-11T15:51:22.477Z,62.96
2019-02-11T15:55:29.462Z,63.30
2019-02-11T15:59:36.499Z,63.83
2019-02-11T16:03:44.136Z,64.31
2019-02-11T16:07:52.396Z,64.83
2019-02-11T16:12:00.959Z,64.70
2019-02-11T16:16:08.857Z,65.03
2019-02-11T16:20:16.448Z,65.54
2019-02-11T16:24:25.130Z,66.07
2019-02-11T16:28:32.489Z,66.10
2019-02-11T16:32:39.861Z,66.41
2019-02-11T16:36:47.127Z,66.82
2019-02-11T16:40:54.340Z,66.62
2019-02-11T16:45:02.563Z,66.58
2019-02-11T16:49:11.526Z,67.18
2019-02-11T16:53:18.634Z,67.22
2019-02-11T16:57:25.487Z,67.37
2019-02-11T17:01:33.733Z,67.17
2019-02-11T17:05:40.910Z,67.11
2019-02-11T17:09:48.913Z,68.10
2019-02-11T17:13:56.235Z,66.76
2019-02-11T17:18:05.113Z,66.95
2019-02-11T17:22:12.282Z,67.59
2019-02-11T17:26:21.203Z,67.11
2019-02-11T17:30:30.623Z,66.90
2019-02-11T17:34:38.210Z,66.40
2019-02-11T17:38:45.631Z,66.47
2019-02-11T17:42:52.605Z,66.53
2019-02-11T17:46:59.483Z,67.03
2019-02-11T17:51:08.087Z,66.82
2019-02-11T17:55:20.618Z,66.78
2019-02-11T17:59:29.318Z,66.58
2019-02-11T18:03:36.504Z,66.56
2019-02-11T18:07:43.330Z,66.41
2019-02-11T18:11:50.259Z,66.22
2019-02-11T18:15:57.268Z,65.48
2019-02-11T18:20:04.359Z,65.60
2019-02-11T18:24:11.390Z,65.07
2019-02-11T18:28:18.318Z,64.80
2019-02-11T18:32:25.283Z,64.32
2019-02-11T18:36:35.133Z,63.80
2019-02-11T18:40:42.029Z,64.34
2019-02-11T18:44:48.924Z,64.05
2019-02-11T18:48:55.869Z,64.66
2019-02-11T18:53:02.751Z,64.63
2019-02-11T18:57:09.606Z,64.94
2019-02-11T19:01:16.450Z,65.12
2019-02-11T19:05:23.764Z,66.34
2019-02-11T19:09:30.795Z,65.52
2019-02-11T19:13:37.693Z,66.08
2019-02-11T19:17:44.722Z,66.05
2019-02-11T19:21:54.144Z,66.65
2019-02-11T19:26:01.188Z,66.75
2019-02-11T19:30:12.642Z,66.91
2019-02-11T19:34:22.514Z,67.09
2019-02-11T19:38:31.250Z,67.20
2019-02-11T19:42:38.190Z,67.72
2019-02-11T19:46:45.069Z,67.84
2019-02-11T19:50:52.014Z,67.92
2019-02-11T19:54:58.842Z,68.28
2019-02-11T19:59:05.981Z,68.09
2019-02-11T20:03:12.998Z,67.99
2019-02-11T20:07:19.921Z,68.08
2019-02-11T20:11:26.879Z,68.39
2019-02-11T20:15:33.922Z,68.40
2019-02-11T20:19:40.789Z,68.27
2019-02-11T20:23:47.609Z,68.27
2019-02-11T20:27:54.428Z,68.42
2019-02-11T20:32:01.353Z,67.95
2019-02-11T20:36:08.285Z,68.31
2019-02-11T20:40:19.764Z,68.03
2019-02-11T20:44:27.719Z,68.14
2019-02-11T20:48:34.515Z,67.86
2019-02-11T20:52:41.372Z,67.72
2019-02-11T20:56:48.243Z,67.79
2019-02-11T21:00:55.098Z,68.27
2019-02-11T21:05:02.009Z,68.47
2019-02-11T21:09:10.330Z,68.32
2019-02-11T21:13:17.444Z,68.22
2019-02-11T21:17:24.441Z,69.71
2019-02-11T21:21:31.377Z,68.36
2019-02-11T21:25:38.301Z,67.90
2019-02-11T21:29:45.806Z,68.05
2019-02-11T21:33:56.828Z,68.10
2019-02-11T21:38:04.060Z,68.17
2019-02-11T21:42:10.965Z,68.30
2019-02-11T21:46:17.865Z,69.45
2019-02-11T21:50:26.669Z,70.61
2019-02-11T21:54:34.354Z,71.02
2019-02-11T21:58:42.656Z,70.55
2019-02-11T22:02:49.610Z,71.28
2019-02-11T22:06:56.543Z,70.66
2019-02-11T22:11:03.437Z,70.73
2019-02-11T22:15:11.908Z,70.75
2019-02-11T22:19:18.698Z,70.76
2019-02-11T22:23:25.503Z,70.71
2019-02-11T22:27:32.247Z,70.51
2019-02-11T22:31:39.155Z,70.42
2019-02-11T22:35:46.198Z,70.31
2019-02-11T22:39:53.084Z,70.34
2019-02-11T22:44:00.003Z,70.87
2019-02-11T22:48:07.015Z,72.14
2019-02-11T22:52:13.914Z,72.04
2019-02-11T22:56:20.886Z,72.61
2019-02-11T23:00:44.228Z,72.39
2019-02-11T23:04:51.604Z,72.15
2019-02-11T23:08:58.477Z,72.51
2019-02-11T23:13:05.406Z,72.91
2019-02-11T23:17:12.267Z,72.80
2019-02-11T23:21:19.151Z,73.20
2019-02-11T23:25:26.921Z,73.25
2019-02-11T23:29:34.387Z,73.12
2019-02-11T23:33:41.208Z,73.32
2019-02-11T23:37:48.023Z,73.49
2019-02-11T23:41:54.845Z,73.81
2019-02-11T23:46:01.753Z,73.84
2019-02-11T23:50:08.682Z,73.86
2019-02-11T23:54:15.507Z,74.04
2019-02-11T23:58:22.763Z,74.12
